createdAt,value
2018-11-06T00:00:00.740Z,6.50
2018-11-06T00:02:29.478Z,6.50
2018-11-06T00:05:03.443Z,6.40
2018-11-06T00:07:32.091Z,6.40
2018-11-06T00:10:00.786Z,6.40
2018-11-06T00:12:29.607Z,6.40
2018-11-06T00:15:00.309Z,6.40
2018-11-06T00:17:29.217Z,6.50
2018-11-06T00:19:57.948Z,6.50
2018-11-06T00:22:26.618Z,6.50
2018-11-06T00:24:55.328Z,6.60
2018-11-06T00:27:24.156Z,6.60
2018-11-06T00:29:53.072Z,6.60
2018-11-06T00:32:21.843Z,6.60
2018-11-06T00:34:50.734Z,6.70
2018-11-06T00:37:19.393Z,6.70
2018-11-06T00:39:48.219Z,6.70
2018-11-06T00:42:16.888Z,6.70
2018-11-06T00:44:45.674Z,6.70
2018-11-06T00:47:14.469Z,6.70
2018-11-06T00:49:43.330Z,6.80
2018-11-06T00:52:12.064Z,6.80
2018-11-06T00:54:40.759Z,6.90
2018-11-06T00:57:09.641Z,6.90
2018-11-06T00:59:38.421Z,7.00
2018-11-06T01:02:07.252Z,7.00
2018-11-06T01:04:35.995Z,7.00
2018-11-06T01:07:05.064Z,6.90
2018-11-06T01:09:33.723Z,6.90
2018-11-06T01:12:02.420Z,6.90
2018-11-06T01:14:31.227Z,6.90
2018-11-06T01:17:00.006Z,6.90
2018-11-06T01:19:28.838Z,6.90
2018-11-06T01:21:57.588Z,6.80
2018-11-06T01:24:26.392Z,6.80
2018-11-06T01:26:55.033Z,6.80
2018-11-06T01:29:23.739Z,6.70
2018-11-06T01:31:52.541Z,6.70
2018-11-06T01:34:21.182Z,6.70
2018-11-06T01:36:49.924Z,6.70
2018-11-06T01:39:18.625Z,6.70
2018-11-06T01:41:47.337Z,6.70
2018-11-06T01:44:17.491Z,6.60
2018-11-06T01:46:47.060Z,6.60
2018-11-06T01:49:16.024Z,6.60
2018-11-06T01:51:45.015Z,6.60
2018-11-06T01:54:13.681Z,6.50
2018-11-06T01:56:42.537Z,6.50
2018-11-06T01:59:11.367Z,6.50
2018-11-06T02:01:40.076Z,6.50
2018-11-06T02:04:08.849Z,6.50
2018-11-06T02:06:37.716Z,6.50
2018-11-06T02:09:08.680Z,6.40
2018-11-06T02:11:37.383Z,6.40
2018-11-06T02:14:07.194Z,6.50
2018-11-06T02:16:35.924Z,6.40
2018-11-06T02:19:04.869Z,6.40
2018-11-06T02:21:33.591Z,6.30
2018-11-06T02:24:02.710Z,6.30
2018-11-06T02:26:32.400Z,6.30
2018-11-06T02:29:03.236Z,6.30
2018-11-06T02:31:31.900Z,6.30
2018-11-06T02:35:04.360Z,6.30
2018-11-06T02:37:32.979Z,6.30
2018-11-06T02:40:01.780Z,6.30
2018-11-06T02:42:30.439Z,6.30
2018-11-06T02:44:59.273Z,6.30
2018-11-06T02:47:27.921Z,6.30
2018-11-06T02:49:56.717Z,6.20
2018-11-06T02:52:25.416Z,6.20
2018-11-06T02:54:54.223Z,6.10
2018-11-06T02:57:22.991Z,6.10
2018-11-06T02:59:51.652Z,6.10
2018-11-06T03:02:20.344Z,6.10
2018-11-06T03:04:49.199Z,6.10
2018-11-06T03:07:17.903Z,6.10
2018-11-06T03:09:46.617Z,6.10
2018-11-06T03:12:15.333Z,6.10
2018-11-06T03:14:44.087Z,6.10
2018-11-06T03:17:12.796Z,6.10
2018-11-06T03:19:41.542Z,6.10
2018-11-06T03:22:10.348Z,6.20
2018-11-06T03:24:39.060Z,6.20
2018-11-06T03:27:07.777Z,6.20
2018-11-06T03:29:36.517Z,6.20
2018-11-06T03:32:05.768Z,6.10
2018-11-06T03:34:34.560Z,6.10
2018-11-06T03:37:03.257Z,6.10
2018-11-06T03:39:31.969Z,6.10
2018-11-06T03:42:00.668Z,6.00
2018-11-06T03:44:29.437Z,6.00
2018-11-06T03:46:58.245Z,5.80
2018-11-06T03:49:26.936Z,5.90
2018-11-06T03:51:55.687Z,5.80
2018-11-06T03:54:24.483Z,5.80
2018-11-06T03:56:53.274Z,5.70
2018-11-06T03:59:22.055Z,5.60
2018-11-06T04:01:50.780Z,5.50
2018-11-06T04:04:19.407Z,5.50
2018-11-06T04:06:48.218Z,5.50
2018-11-06T04:09:16.894Z,5.40
2018-11-06T04:11:45.553Z,5.40
2018-11-06T04:14:14.368Z,5.40
2018-11-06T04:16:43.064Z,5.30
2018-11-06T04:19:11.844Z,5.40
2018-11-06T04:21:41.293Z,5.40
2018-11-06T04:24:12.487Z,5.40
2018-11-06T04:26:41.162Z,5.40
2018-11-06T04:29:10.491Z,5.40
2018-11-06T04:31:39.944Z,5.30
2018-11-06T04:34:09.499Z,5.30
2018-11-06T04:36:38.268Z,5.40
2018-11-06T04:39:08.663Z,5.30
2018-11-06T04:41:37.511Z,5.20
2018-11-06T04:44:06.984Z,5.20
2018-11-06T04:46:35.699Z,5.10
2018-11-06T04:49:04.882Z,5.10
2018-11-06T04:51:33.579Z,5.10
2018-11-06T04:54:02.858Z,5.10
2018-11-06T04:56:32.152Z,5.10
2018-11-06T04:59:00.865Z,5.10
2018-11-06T05:01:29.663Z,5.00
2018-11-06T05:03:58.269Z,5.00
2018-11-06T05:06:26.996Z,5.00
2018-11-06T05:08:55.991Z,5.00
2018-11-06T05:11:24.886Z,5.00
2018-11-06T05:13:53.715Z,5.00
2018-11-06T05:16:22.460Z,5.00
2018-11-06T05:18:51.100Z,5.10
2018-11-06T05:21:19.699Z,5.10
2018-11-06T05:23:48.441Z,5.10
2018-11-06T05:26:17.306Z,5.10
2018-11-06T05:28:46.007Z,5.10
2018-11-06T05:31:14.656Z,5.10
2018-11-06T05:33:43.580Z,5.10
2018-11-06T05:36:12.196Z,5.20
2018-11-06T05:38:40.784Z,5.20
2018-11-06T05:41:09.697Z,5.20
2018-11-06T05:43:39.034Z,5.20
2018-11-06T05:46:07.794Z,5.30
2018-11-06T05:48:36.582Z,5.30
2018-11-06T05:51:05.768Z,5.20
2018-11-06T05:53:34.660Z,5.30
2018-11-06T05:56:03.456Z,5.30
2018-11-06T05:58:32.128Z,5.30
2018-11-06T06:01:00.967Z,5.30
2018-11-06T06:03:29.592Z,5.30
2018-11-06T06:05:58.321Z,5.30
2018-11-06T06:08:27.292Z,5.30
2018-11-06T06:11:06.785Z,5.30
2018-11-06T06:13:35.597Z,5.20
2018-11-06T06:16:04.480Z,5.20
2018-11-06T06:18:33.316Z,5.10
2018-11-06T06:21:02.098Z,5.10
2018-11-06T06:23:30.875Z,5.10
2018-11-06T06:25:59.657Z,5.10
2018-11-06T06:28:28.377Z,5.10
2018-11-06T06:30:57.079Z,5.00
2018-11-06T06:33:25.808Z,5.10
2018-11-06T06:35:54.492Z,5.00
2018-11-06T06:38:23.199Z,5.10
2018-11-06T06:40:52.151Z,5.10
2018-11-06T06:43:20.840Z,5.10
2018-11-06T06:45:49.539Z,5.10
2018-11-06T06:48:18.436Z,5.20
2018-11-06T06:50:47.139Z,5.20
2018-11-06T06:53:15.813Z,5.20
2018-11-06T07:02:44.447Z,5.30
2018-11-06T07:05:14.552Z,5.50
2018-11-06T07:07:44.160Z,5.60
2018-11-06T07:10:14.753Z,5.70
2018-11-06T07:12:44.516Z,5.70
2018-11-06T07:15:14.532Z,5.80
2018-11-06T07:17:44.122Z,5.90
2018-11-06T07:20:15.367Z,6.00
2018-11-06T07:22:44.248Z,6.10
2018-11-06T07:25:13.796Z,6.20
2018-11-06T07:27:43.484Z,6.20
2018-11-06T07:30:17.584Z,6.30
2018-11-06T07:32:46.742Z,6.40
2018-11-06T07:35:16.428Z,6.50
2018-11-06T07:37:45.700Z,6.60
2018-11-06T07:40:15.943Z,6.70
2018-11-06T07:42:44.707Z,6.80
2018-11-06T07:45:14.599Z,6.90
2018-11-06T07:47:43.596Z,7.00
2018-11-06T07:50:13.086Z,7.10
2018-11-06T07:52:41.992Z,7.30
2018-11-06T07:55:13.015Z,7.40
2018-11-06T07:57:41.707Z,7.60
2018-11-06T08:00:18.904Z,7.70
2018-11-06T08:02:48.313Z,7.90
2018-11-06T08:05:17.296Z,8.10
2018-11-06T08:07:47.117Z,8.40
2018-11-06T08:10:15.916Z,8.60
2018-11-06T08:12:46.133Z,8.90
2018-11-06T08:15:15.051Z,9.20
2018-11-06T08:17:44.874Z,9.40
2018-11-06T08:20:14.019Z,9.60
2018-11-06T08:22:42.789Z,9.80
2018-11-06T08:26:35.928Z,10.00
2018-11-06T08:29:04.859Z,10.20
2018-11-06T08:31:33.810Z,10.40
2018-11-06T08:34:02.427Z,10.50
2018-11-06T08:36:31.281Z,10.60
2018-11-06T08:39:00.028Z,10.70
2018-11-06T08:41:28.678Z,10.80
2018-11-06T08:43:57.404Z,10.90
2018-11-06T08:46:26.059Z,11.00
2018-11-06T08:48:54.849Z,11.10
2018-11-06T08:51:23.553Z,11.30
2018-11-06T08:53:52.325Z,11.40
2018-11-06T08:56:21.141Z,11.50
2018-11-06T08:58:49.954Z,11.60
2018-11-06T09:01:18.627Z,11.70
2018-11-06T09:03:47.339Z,11.80
2018-11-06T09:06:16.107Z,11.90
2018-11-06T09:08:45.088Z,12.00
2018-11-06T09:11:13.944Z,12.10
2018-11-06T09:13:42.587Z,12.20
2018-11-06T09:16:11.432Z,12.40
2018-11-06T09:18:40.198Z,12.40
2018-11-06T09:21:08.961Z,12.50
2018-11-06T09:23:37.632Z,12.50
2018-11-06T09:26:06.455Z,12.70
2018-11-06T09:28:35.195Z,12.80
2018-11-06T09:31:04.277Z,12.90
2018-11-06T09:33:32.893Z,13.00
2018-11-06T09:36:01.580Z,13.20
2018-11-06T09:38:30.388Z,13.30
2018-11-06T09:40:59.059Z,13.40
2018-11-06T09:43:27.963Z,13.60
2018-11-06T09:45:56.631Z,13.70
2018-11-06T09:48:25.647Z,13.70
2018-11-06T09:50:54.297Z,13.80
2018-11-06T09:53:22.984Z,14.00
2018-11-06T09:55:51.822Z,14.10
2018-11-06T09:58:20.961Z,14.00
2018-11-06T10:00:49.687Z,14.20
2018-11-06T10:03:18.335Z,14.20
2018-11-06T10:05:47.044Z,14.40
2018-11-06T10:08:16.161Z,14.50
2018-11-06T10:10:45.056Z,14.80
2018-11-06T10:13:13.803Z,15.20
2018-11-06T10:15:42.563Z,15.40
2018-11-06T10:18:11.167Z,15.50
2018-11-06T10:20:39.997Z,15.80
2018-11-06T10:23:08.664Z,16.10
2018-11-06T10:25:37.456Z,16.50
2018-11-06T10:28:06.267Z,16.60
2018-11-06T10:30:35.095Z,16.70
2018-11-06T10:33:03.816Z,17.10
2018-11-06T10:35:32.506Z,17.50
2018-11-06T10:38:01.220Z,17.70
2018-11-06T10:40:29.988Z,17.60
2018-11-06T10:42:58.660Z,17.70
2018-11-06T10:45:27.333Z,18.20
2018-11-06T10:47:56.128Z,18.60
2018-11-06T10:50:24.724Z,19.30
2018-11-06T10:52:53.395Z,19.60
2018-11-06T10:55:22.409Z,19.30
2018-11-06T10:57:51.003Z,19.30
2018-11-06T11:00:24.984Z,19.30
2018-11-06T11:02:58.940Z,19.50
2018-11-06T11:05:28.902Z,19.70
2018-11-06T11:07:57.691Z,19.90
2018-11-06T11:10:26.398Z,19.60
2018-11-06T11:12:55.039Z,20.20
2018-11-06T11:15:23.957Z,20.60
2018-11-06T11:17:52.675Z,20.80
2018-11-06T11:20:21.407Z,20.90
2018-11-06T11:22:50.056Z,20.60
2018-11-06T11:25:18.683Z,20.10
2018-11-06T11:27:47.600Z,19.50
2018-11-06T11:30:17.060Z,20.10
2018-11-06T11:32:47.204Z,20.00
2018-11-06T11:35:16.111Z,20.50
2018-11-06T11:37:45.078Z,20.70
2018-11-06T11:40:14.913Z,20.80
2018-11-06T11:42:43.895Z,20.60
2018-11-06T11:45:13.617Z,20.70
2018-11-06T11:47:42.331Z,20.50
2018-11-06T11:50:12.521Z,20.60
2018-11-06T11:52:41.414Z,20.80
2018-11-06T11:55:10.303Z,20.50
2018-11-06T11:57:39.743Z,20.60
2018-11-06T12:00:10.946Z,20.40
2018-11-06T12:02:39.620Z,20.30
2018-11-06T12:05:09.017Z,20.30
2018-11-06T12:07:37.963Z,20.00
2018-11-06T12:10:08.024Z,20.00
2018-11-06T12:12:36.759Z,20.00
2018-11-06T12:15:07.719Z,19.60
2018-11-06T12:17:36.357Z,19.80
2018-11-06T12:20:05.221Z,19.60
2018-11-06T12:22:33.924Z,19.50
2018-11-06T12:25:03.083Z,19.30
2018-11-06T12:27:31.569Z,19.60
2018-11-06T12:30:00.373Z,20.00
2018-11-06T12:32:29.204Z,20.00
2018-11-06T12:34:57.857Z,19.80
2018-11-06T12:37:26.496Z,20.00
2018-11-06T12:39:55.322Z,19.70
2018-11-06T12:42:24.034Z,19.60
2018-11-06T12:44:52.906Z,19.30
2018-11-06T12:47:21.679Z,19.30
2018-11-06T12:49:50.349Z,19.20
2018-11-06T12:52:19.168Z,19.10
2018-11-06T12:54:47.944Z,19.50
2018-11-06T12:57:16.778Z,19.60
2018-11-06T12:59:45.530Z,19.50
2018-11-06T13:02:14.236Z,19.50
2018-11-06T13:04:43.089Z,19.50
2018-11-06T13:07:11.797Z,19.40
2018-11-06T13:09:40.453Z,19.60
2018-11-06T13:12:09.253Z,19.50
2018-11-06T13:14:37.952Z,19.40
2018-11-06T13:17:06.983Z,19.70
2018-11-06T13:19:35.722Z,19.90
2018-11-06T13:22:05.125Z,19.90
2018-11-06T13:24:33.783Z,19.90
2018-11-06T13:27:02.666Z,20.20
2018-11-06T13:29:31.413Z,20.60
2018-11-06T13:32:00.051Z,20.80
2018-11-06T13:34:28.888Z,20.60
2018-11-06T13:36:57.491Z,20.60
2018-11-06T13:39:26.099Z,20.80
2018-11-06T13:41:55.015Z,21.10
2018-11-06T13:44:24.061Z,21.20
2018-11-06T13:46:52.404Z,21.40
2018-11-06T13:49:21.152Z,21.40
2018-11-06T13:51:49.828Z,21.20
2018-11-06T13:54:18.647Z,21.30
2018-11-06T13:56:47.316Z,21.30
2018-11-06T13:59:16.038Z,21.20
2018-11-06T14:01:44.772Z,21.00
2018-11-06T14:04:13.493Z,21.00
2018-11-06T14:06:42.183Z,21.00
2018-11-06T14:09:11.633Z,21.00
2018-11-06T14:11:40.773Z,20.80
2018-11-06T14:14:09.554Z,20.70
2018-11-06T14:16:38.405Z,20.50
2018-11-06T14:19:07.137Z,20.50
2018-11-06T14:21:36.015Z,20.30
2018-11-06T14:24:04.803Z,20.10
2018-11-06T14:26:33.585Z,20.00
2018-11-06T14:29:02.390Z,19.80
2018-11-06T14:31:31.074Z,19.60
2018-11-06T14:33:59.808Z,19.30
2018-11-06T14:36:28.528Z,19.10
2018-11-06T14:38:57.216Z,18.80
2018-11-06T14:41:25.993Z,18.60
2018-11-06T14:43:54.794Z,18.40
2018-11-06T14:46:23.440Z,18.20
2018-11-06T14:48:52.124Z,17.90
2018-11-06T14:51:20.845Z,17.50
2018-11-06T14:53:49.644Z,17.30
2018-11-06T14:56:18.299Z,17.00
2018-11-06T14:58:47.210Z,16.70
2018-11-06T15:01:15.880Z,16.20
2018-11-06T15:03:44.692Z,15.90
2018-11-06T15:06:13.473Z,15.70
2018-11-06T15:08:42.152Z,15.50
2018-11-06T15:11:10.821Z,15.30
2018-11-06T15:13:39.834Z,15.00
2018-11-06T15:16:08.505Z,14.90
2018-11-06T15:18:37.164Z,14.80
2018-11-06T15:21:06.511Z,14.60
2018-11-06T15:23:35.177Z,14.40
2018-11-06T15:26:04.091Z,14.30
2018-11-06T15:28:32.755Z,14.10
2018-11-06T15:31:01.416Z,14.00
2018-11-06T15:33:30.298Z,13.80
2018-11-06T15:35:59.119Z,13.80
2018-11-06T15:38:27.912Z,13.60
2018-11-06T15:40:56.738Z,13.60
2018-11-06T15:43:25.592Z,13.50
2018-11-06T15:45:54.251Z,13.40
2018-11-06T15:48:22.930Z,13.30
2018-11-06T15:50:51.747Z,13.20
2018-11-06T15:53:20.631Z,13.20
2018-11-06T15:55:49.312Z,13.10
2018-11-06T15:58:18.035Z,13.10
2018-11-06T16:00:46.823Z,13.00
2018-11-06T16:03:15.689Z,12.90
2018-11-06T16:05:44.360Z,12.90
2018-11-06T16:08:13.086Z,12.80
2018-11-06T16:10:41.772Z,12.80
2018-11-06T16:13:10.525Z,12.70
2018-11-06T16:15:39.257Z,12.60
2018-11-06T16:18:07.876Z,12.50
2018-11-06T16:20:36.676Z,12.50
2018-11-06T16:23:05.403Z,12.40
2018-11-06T16:25:34.049Z,12.30
2018-11-06T16:28:02.840Z,12.20
2018-11-06T16:30:31.572Z,12.10
2018-11-06T16:33:00.338Z,12.10
2018-11-06T16:35:29.396Z,12.00
2018-11-06T16:37:58.189Z,11.90
2018-11-06T16:40:26.872Z,11.90
2018-11-06T16:42:55.679Z,11.80
2018-11-06T16:45:24.420Z,11.60
2018-11-06T16:47:53.664Z,11.40
2018-11-06T16:50:22.956Z,11.40
2018-11-06T16:52:51.652Z,11.30
2018-11-06T16:55:20.872Z,11.20
2018-11-06T16:57:49.835Z,11.10
2018-11-06T17:00:21.338Z,11.00
2018-11-06T17:02:50.229Z,11.00
2018-11-06T17:05:19.012Z,10.90
2018-11-06T17:07:48.472Z,10.90
2018-11-06T17:10:17.890Z,10.90
2018-11-06T17:12:47.093Z,10.80
2018-11-06T17:15:18.315Z,10.70
2018-11-06T17:17:48.107Z,10.70
2018-11-06T17:20:17.118Z,10.60
2018-11-06T17:22:46.059Z,10.60
2018-11-06T17:25:16.307Z,10.60
2018-11-06T17:27:45.305Z,10.60
2018-11-06T17:30:15.319Z,10.60
2018-11-06T17:32:44.337Z,10.60
2018-11-06T17:35:15.012Z,10.60
2018-11-06T17:37:44.152Z,10.50
2018-11-06T17:40:16.209Z,10.50
2018-11-06T17:42:45.459Z,10.50
2018-11-06T17:45:19.804Z,10.50
2018-11-06T17:47:48.622Z,10.50
2018-11-06T17:50:17.818Z,10.50
2018-11-06T17:52:46.903Z,10.50
2018-11-06T17:55:17.107Z,10.50
2018-11-06T17:57:45.999Z,10.50
2018-11-06T18:00:17.847Z,10.50
2018-11-06T18:02:47.096Z,10.60
2018-11-06T18:05:16.684Z,10.60
2018-11-06T18:07:45.791Z,10.50
2018-11-06T18:10:15.915Z,10.60
2018-11-06T18:12:45.100Z,10.50
2018-11-06T18:15:13.973Z,10.50
2018-11-06T18:17:43.183Z,10.50
2018-11-06T18:20:13.112Z,10.40
2018-11-06T18:22:42.602Z,10.50
2018-11-06T18:25:12.420Z,10.50
2018-11-06T18:27:41.364Z,10.40
2018-11-06T18:30:12.646Z,10.40
2018-11-06T18:32:42.404Z,10.40
2018-11-06T18:35:12.586Z,10.40
2018-11-06T18:37:41.414Z,10.40
2018-11-06T18:40:14.009Z,10.30
2018-11-06T18:42:44.084Z,10.30
2018-11-06T18:45:13.352Z,10.30
2018-11-06T18:47:42.290Z,10.40
2018-11-06T18:50:12.665Z,10.30
2018-11-06T18:52:42.582Z,10.30
2018-11-06T18:55:11.312Z,10.30
2018-11-06T18:57:40.319Z,10.20
2018-11-06T19:00:12.643Z,10.20
2018-11-06T19:02:42.451Z,10.20
2018-11-06T19:05:12.356Z,10.30
2018-11-06T19:07:41.149Z,10.30
2018-11-06T19:10:11.561Z,10.20
2018-11-06T19:12:40.455Z,10.20
2018-11-06T19:15:12.152Z,10.20
2018-11-06T19:17:41.242Z,10.20
2018-11-06T19:20:11.020Z,10.10
2018-11-06T19:22:39.952Z,10.20
2018-11-06T19:25:09.829Z,10.10
2018-11-06T19:27:38.724Z,10.10
2018-11-06T19:30:16.195Z,10.20
2018-11-06T19:32:44.858Z,10.20
2018-11-06T19:35:14.390Z,10.10
2018-11-06T19:37:45.381Z,10.10
2018-11-06T19:40:15.884Z,10.10
2018-11-06T19:42:46.481Z,10.00
2018-11-06T19:45:16.791Z,10.00
2018-11-06T19:47:47.211Z,10.10
2018-11-06T19:50:19.061Z,10.00
2018-11-06T19:52:50.518Z,10.00
2018-11-06T19:55:20.402Z,10.00
2018-11-06T19:57:49.553Z,10.00
2018-11-06T20:00:20.954Z,9.90
2018-11-06T20:02:51.391Z,9.80
2018-11-06T20:05:20.927Z,9.80
2018-11-06T20:07:51.388Z,9.70
2018-11-06T20:10:21.955Z,9.70
2018-11-06T20:12:52.798Z,9.60
2018-11-06T20:15:22.996Z,9.60
2018-11-06T20:17:55.193Z,9.50
2018-11-06T20:20:29.530Z,9.50
2018-11-06T20:22:58.946Z,9.40
2018-11-06T20:25:28.243Z,9.40
2018-11-06T20:27:56.961Z,9.30
2018-11-06T20:30:26.636Z,9.30
2018-11-06T20:32:55.639Z,9.30
2018-11-06T20:35:24.282Z,9.20
2018-11-06T20:37:53.278Z,9.20
2018-11-06T20:40:23.414Z,9.20
2018-11-06T20:42:52.306Z,9.10
2018-11-06T20:45:21.497Z,9.10
2018-11-06T20:47:50.162Z,9.00
2018-11-06T20:50:21.836Z,9.00
2018-11-06T20:52:50.676Z,8.90
2018-11-06T20:55:19.651Z,8.90
2018-11-06T20:57:48.314Z,8.90
2018-11-06T21:00:30.266Z,8.80
2018-11-06T21:03:01.347Z,8.70
2018-11-06T21:05:30.176Z,8.70
2018-11-06T21:07:59.088Z,8.60
2018-11-06T21:10:29.548Z,8.60
2018-11-06T21:12:58.227Z,8.70
2018-11-06T21:15:27.211Z,8.60
2018-11-06T21:17:56.297Z,8.60
2018-11-06T21:20:24.942Z,8.60
2018-11-06T21:22:53.791Z,8.60
2018-11-06T21:25:24.613Z,8.60
2018-11-06T21:27:53.305Z,8.60
2018-11-06T21:30:22.431Z,8.50
2018-11-06T21:32:52.327Z,8.50
2018-11-06T21:35:21.222Z,8.50
2018-11-06T21:37:50.147Z,8.50
2018-11-06T21:40:20.435Z,8.60
2018-11-06T21:42:49.406Z,8.60
2018-11-06T21:45:18.667Z,8.60
2018-11-06T21:47:48.573Z,8.70
2018-11-06T21:50:17.921Z,8.70
2018-11-06T21:52:46.631Z,8.80
2018-11-06T21:55:16.665Z,8.80
2018-11-06T21:57:45.305Z,8.90
2018-11-06T22:00:15.675Z,8.90
2018-11-06T22:02:44.534Z,8.80
2018-11-06T22:05:14.446Z,8.80
2018-11-06T22:07:43.423Z,8.80
2018-11-06T22:10:13.459Z,8.80
2018-11-06T22:12:43.123Z,8.80
2018-11-06T22:15:12.967Z,8.80
2018-11-06T22:17:41.855Z,8.70
2018-11-06T22:20:12.691Z,8.70
2018-11-06T22:22:42.192Z,8.60
2018-11-06T22:25:11.022Z,8.60
2018-11-06T22:27:39.878Z,8.60
2018-11-06T22:30:10.624Z,8.60
2018-11-06T22:32:39.934Z,8.60
2018-11-06T22:35:10.189Z,8.60
2018-11-06T22:37:38.918Z,8.60
2018-11-06T22:40:08.428Z,8.60
2018-11-06T22:42:37.572Z,8.60
2018-11-06T22:45:08.068Z,8.60
2018-11-06T22:47:36.720Z,8.60
2018-11-06T22:50:06.872Z,8.70
2018-11-06T22:52:35.630Z,8.60
2018-11-06T22:55:04.630Z,8.60
2018-11-06T22:57:33.273Z,8.60
2018-11-06T23:00:02.073Z,8.60
2018-11-06T23:02:30.795Z,8.60
2018-11-06T23:04:59.459Z,8.60
2018-11-06T23:07:33.577Z,8.60
2018-11-06T23:10:02.256Z,8.60
2018-11-06T23:12:31.075Z,8.70
2018-11-06T23:14:59.695Z,8.70
2018-11-06T23:17:28.411Z,8.60
2018-11-06T23:19:57.088Z,8.70
2018-11-06T23:22:26.101Z,8.60
2018-11-06T23:24:55.016Z,8.60
2018-11-06T23:27:23.534Z,8.60
2018-11-06T23:29:52.316Z,8.60
2018-11-06T23:32:21.060Z,8.60
2018-11-06T23:34:49.705Z,8.50
2018-11-06T23:37:18.508Z,8.50
2018-11-06T23:39:47.179Z,8.50
2018-11-06T23:42:15.840Z,8.50
2018-11-06T23:44:44.525Z,8.50
2018-11-06T23:47:13.262Z,8.50
2018-11-06T23:49:41.944Z,8.40
2018-11-06T23:52:10.591Z,8.40
2018-11-06T23:54:39.315Z,8.40
2018-11-06T23:57:08.019Z,8.40
2018-11-06T23:59:36.784Z,8.40
